Time;durP1;ratioP1;P1;durP2;ratioP2;P2;SDS_P1;SDS_P2;PMS_P1;PMS_P2;Temp;Humidity;BMP_temperature;BMP_pressure;BME280_temperature;BME280_humidity;BME280_pressure;Samples;Min_cycle;Max_cycle;Signal;HPM_P1;HPM_P2
2022/03/28 00:00:21;;;;;;;5.07;2.42;;;9.80;60.80;;;;;;4999990;28;20025;-83
2022/03/28 00:02:47;;;;;;;6.10;2.60;;;9.80;61.00;;;;;;4980169;28;20108;-83
2022/03/28 00:05:13;;;;;;;4.60;2.40;;;9.70;61.00;;;;;;5000119;28;20030;-83
2022/03/28 00:07:40;;;;;;;4.88;2.75;;;9.70;61.10;;;;;;4972493;28;20034;-83
2022/03/28 00:10:07;;;;;;;4.47;2.47;;;9.70;61.20;;;;;;5016601;28;20442;-83
2022/03/28 00:12:33;;;;;;;5.25;2.70;;;9.70;61.30;;;;;;4973799;28;20036;-83
2022/03/28 00:14:59;;;;;;;5.22;2.70;;;9.60;61.20;;;;;;4999833;28;20049;-83
2022/03/28 00:17:24;;;;;;;5.03;2.57;;;9.60;61.20;;;;;;4999934;28;20061;-83
2022/03/28 00:19:50;;;;;;;4.47;2.40;;;9.60;61.20;;;;;;4980856;28;20307;-83
2022/03/28 00:22:16;;;;;;;5.27;2.73;;;9.50;61.30;;;;;;4986604;28;20022;-83
2022/03/28 00:24:41;;;;;;;4.95;2.70;;;9.50;61.40;;;;;;4979912;28;20289;-83
2022/03/28 00:27:07;;;;;;;4.20;2.43;;;9.50;61.30;;;;;;4999546;28;20048;-83
2022/03/28 00:29:33;;;;;;;5.18;2.47;;;9.40;61.30;;;;;;4987502;28;20033;-84
2022/03/28 00:31:58;;;;;;;5.10;3.03;;;9.40;61.40;;;;;;4979399;28;20131;-83
2022/03/28 00:34:24;;;;;;;5.40;2.53;;;9.40;61.40;;;;;;4997778;28;20026;-83
2022/03/28 00:36:51;;;;;;;4.00;2.43;;;9.40;61.40;;;;;;4971907;28;20120;-83
2022/03/28 00:39:19;;;;;;;4.63;2.70;;;9.40;61.60;;;;;;4999477;28;20104;-83
2022/03/28 00:41:48;;;;;;;4.03;2.65;;;9.30;61.60;;;;;;4979529;28;20065;-83
2022/03/28 00:44:14;;;;;;;4.57;2.70;;;9.30;61.60;;;;;;4990190;28;20033;-84
2022/03/28 00:46:40;;;;;;;4.50;2.67;;;9.30;61.60;;;;;;4996802;28;20581;-83
2022/03/28 00:49:06;;;;;;;4.28;2.50;;;9.20;61.60;;;;;;4997206;28;20441;-84
2022/03/28 00:51:32;;;;;;;5.10;2.30;;;9.20;61.60;;;;;;4961727;28;20033;-83
2022/03/28 00:53:59;;;;;;;4.23;2.60;;;9.20;61.60;;;;;;4977514;28;20774;-83
2022/03/28 00:56:25;;;;;;;4.28;2.55;;;9.10;61.60;;;;;;5014907;28;20033;-83
2022/03/28 00:58:51;;;;;;;4.68;2.72;;;9.10;61.60;;;;;;4987383;28;22142;-83
2022/03/28 01:01:17;;;;;;;4.65;2.58;;;9.10;61.70;;;;;;4982899;28;20358;-84
2022/03/28 01:03:43;;;;;;;3.93;2.47;;;9.00;61.70;;;;;;4994720;28;20054;-84
2022/03/28 01:06:09;;;;;;;4.63;2.63;;;9.00;61.80;;;;;;4983263;28;20530;-85
2022/03/28 01:08:35;;;;;;;5.57;3.00;;;9.00;61.80;;;;;;4987145;28;20045;-84
2022/03/28 01:11:09;;;;;;;4.57;2.47;;;8.90;61.70;;;;;;4998512;28;20029;-84
2022/03/28 01:13:36;;;;;;;3.97;2.65;;;8.90;61.90;;;;;;4991410;28;20045;-85
2022/03/28 01:16:03;;;;;;;4.50;2.30;;;8.90;61.90;;;;;;4979909;28;20029;-85
2022/03/28 01:18:29;;;;;;;4.53;2.42;;;8.80;61.90;;;;;;4996789;28;20033;-85
2022/03/28 01:20:57;;;;;;;4.03;2.20;;;8.80;61.80;;;;;;4999068;28;20034;-85
2022/03/28 01:23:23;;;;;;;4.68;2.45;;;8.70;61.80;;;;;;4989528;28;20133;-85
2022/03/28 01:25:53;;;;;;;4.68;2.60;;;8.80;61.90;;;;;;4995041;28;20468;-85
2022/03/28 01:28:26;;;;;;;5.20;3.03;;;8.70;62.00;;;;;;4999224;28;20021;-85
2022/03/28 01:30:54;;;;;;;5.50;2.85;;;8.70;62.00;;;;;;5005199;28;20223;-85
2022/03/28 01:33:20;;;;;;;3.90;2.37;;;8.70;62.00;;;;;;4988817;28;20025;-85
2022/03/28 01:35:46;;;;;;;4.18;2.30;;;8.70;62.20;;;;;;5009758;28;20720;-85
2022/03/28 01:38:14;;;;;;;4.10;2.40;;;8.60;62.20;;;;;;4969420;28;20060;-85
2022/03/28 01:40:43;;;;;;;3.90;2.50;;;8.60;62.50;;;;;;5009396;28;20478;-85
2022/03/28 01:43:10;;;;;;;4.57;2.77;;;8.60;62.60;;;;;;4998255;28;20034;-85
2022/03/28 01:45:36;;;;;;;4.22;2.50;;;8.60;62.50;;;;;;4987827;28;20034;-85
2022/03/28 01:48:02;;;;;;;4.25;2.50;;;8.50;62.50;;;;;;5005047;28;20067;-85
2022/03/28 01:50:28;;;;;;;4.15;2.38;;;8.50;62.50;;;;;;4981337;28;20025;-84
2022/03/28 01:52:54;;;;;;;4.20;2.50;;;8.50;62.40;;;;;;4965685;28;20030;-85
2022/03/28 01:55:20;;;;;;;3.78;2.20;;;8.50;62.30;;;;;;4998676;28;20030;-84
2022/03/28 01:57:45;;;;;;;4.57;2.50;;;8.40;62.30;;;;;;4993580;28;20252;-84
2022/03/28 02:00:18;;;;;;;4.33;2.40;;;8.30;62.30;;;;;;4990206;28;20112;-85
2022/03/28 02:02:47;;;;;;;4.38;2.60;;;8.30;62.80;;;;;;4994664;28;20087;-84
2022/03/28 02:05:14;;;;;;;5.03;2.72;;;8.30;62.30;;;;;;5000469;28;20061;-84
2022/03/28 02:07:41;;;;;;;4.82;2.42;;;8.20;62.40;;;;;;4995380;28;20079;-84
2022/03/28 02:10:13;;;;;;;4.47;2.40;;;8.20;62.50;;;;;;4985216;28;20064;-84
2022/03/28 02:12:38;;;;;;;4.75;2.65;;;8.20;62.70;;;;;;4994514;28;20037;-84
2022/03/28 02:15:06;;;;;;;4.78;2.60;;;8.20;62.50;;;;;;4984740;28;20022;-84
2022/03/28 02:17:33;;;;;;;3.85;2.30;;;8.10;62.70;;;;;;4995766;28;20479;-84
2022/03/28 02:19:58;;;;;;;3.87;2.13;;;8.10;62.80;;;;;;5002463;28;20036;-84
2022/03/28 02:22:24;;;;;;;3.85;2.55;;;8.10;62.90;;;;;;4998145;28;20422;-84
2022/03/28 02:24:51;;;;;;;6.33;2.90;;;8.00;63.00;;;;;;4988688;28;20207;-85
2022/03/28 02:27:17;;;;;;;4.50;2.70;;;8.00;63.00;;;;;;4997647;28;20267;-85
2022/03/28 02:29:42;;;;;;;4.82;2.42;;;8.00;63.00;;;;;;5001194;28;20038;-85
2022/03/28 02:32:09;;;;;;;4.90;2.50;;;8.00;63.00;;;;;;4972103;28;20030;-84
2022/03/28 02:34:35;;;;;;;5.07;2.80;;;7.90;63.00;;;;;;4998186;28;20436;-84
2022/03/28 02:37:01;;;;;;;5.93;2.70;;;7.90;63.00;;;;;;5002983;28;20030;-84
2022/03/28 02:39:26;;;;;;;5.05;2.80;;;7.90;62.90;;;;;;4982721;28;20018;-84
2022/03/28 02:41:52;;;;;;;4.23;2.30;;;7.90;63.00;;;;;;4986876;28;20037;-84
2022/03/28 02:44:19;;;;;;;5.28;2.72;;;7.90;63.10;;;;;;4979298;28;20030;-84
2022/03/28 02:46:46;;;;;;;4.88;2.90;;;7.90;63.10;;;;;;4975693;28;20034;-84
2022/03/28 02:49:12;;;;;;;4.80;2.58;;;7.80;63.10;;;;;;4998134;28;20029;-84
2022/03/28 02:51:39;;;;;;;4.78;2.63;;;7.80;63.00;;;;;;4984759;28;20120;-84
2022/03/28 02:54:05;;;;;;;4.07;2.33;;;7.70;63.70;;;;;;5003079;28;20561;-84
2022/03/28 02:56:31;;;;;;;4.22;2.58;;;7.70;63.00;;;;;;4975081;28;20252;-84
2022/03/28 02:58:56;;;;;;;5.22;2.72;;;7.70;63.10;;;;;;5000665;28;20030;-84
2022/03/28 03:01:22;;;;;;;4.67;2.43;;;7.60;63.10;;;;;;4989723;28;20058;-84
2022/03/28 03:03:48;;;;;;;5.22;2.67;;;7.60;63.10;;;;;;5001431;28;20071;-84
2022/03/28 03:06:13;;;;;;;4.20;2.30;;;7.60;63.20;;;;;;4999405;28;20498;-84
2022/03/28 03:08:39;;;;;;;4.05;2.17;;;7.50;63.10;;;;;;4989840;28;20103;-84
2022/03/28 03:11:05;;;;;;;4.50;2.30;;;7.50;63.20;;;;;;5008964;28;20144;-84
2022/03/28 03:13:30;;;;;;;4.93;2.77;;;7.50;63.40;;;;;;5006469;28;20307;-84
2022/03/28 03:15:56;;;;;;;6.23;2.50;;;7.50;63.40;;;;;;4977672;28;20281;-84
2022/03/28 03:18:22;;;;;;;3.97;2.13;;;7.50;63.50;;;;;;4972633;28;20294;-84
2022/03/28 03:20:47;;;;;;;4.47;2.58;;;7.40;63.30;;;;;;4994702;28;20033;-84
2022/03/28 03:23:13;;;;;;;4.07;2.30;;;7.40;63.40;;;;;;5013732;28;20029;-83
2022/03/28 03:25:39;;;;;;;4.35;2.20;;;7.40;63.40;;;;;;5014110;28;20110;-84
2022/03/28 03:28:05;;;;;;;4.10;2.30;;;7.40;63.40;;;;;;4969807;28;20334;-84
2022/03/28 03:30:30;;;;;;;5.30;2.55;;;7.30;63.30;;;;;;4999175;28;20029;-84
2022/03/28 03:32:57;;;;;;;5.67;2.67;;;7.30;63.40;;;;;;5017220;28;20026;-84
2022/03/28 03:35:23;;;;;;;5.70;2.60;;;7.30;63.50;;;;;;4990445;28;20525;-85
2022/03/28 03:37:50;;;;;;;4.20;2.38;;;7.20;63.50;;;;;;5002127;28;20080;-84
2022/03/28 03:40:16;;;;;;;4.43;2.58;;;7.20;63.50;;;;;;4995315;28;20030;-84
2022/03/28 03:42:42;;;;;;;4.97;2.65;;;7.20;63.50;;;;;;4983922;28;20049;-84
2022/03/28 03:45:08;;;;;;;4.60;2.47;;;7.20;63.60;;;;;;4998415;28;20029;-84
2022/03/28 03:47:34;;;;;;;4.13;2.20;;;7.10;63.60;;;;;;4999661;28;20326;-84
2022/03/28 03:50:00;;;;;;;4.65;2.70;;;7.10;63.70;;;;;;4992238;28;20061;-84
2022/03/28 03:52:25;;;;;;;4.73;2.70;;;7.10;63.90;;;;;;4981462;28;20384;-84
2022/03/28 03:54:51;;;;;;;4.90;2.50;;;7.00;63.80;;;;;;5016460;28;20037;-84
2022/03/28 03:57:17;;;;;;;4.53;2.60;;;7.00;63.80;;;;;;4966312;28;20881;-84
2022/03/28 03:59:42;;;;;;;5.78;2.63;;;7.00;64.00;;;;;;5011508;28;20050;-84
2022/03/28 04:02:08;;;;;;;4.80;2.40;;;7.00;64.10;;;;;;4981591;28;20038;-84
2022/03/28 04:04:34;;;;;;;5.78;2.58;;;7.00;64.10;;;;;;4974883;28;20171;-85
2022/03/28 04:07:00;;;;;;;4.22;2.33;;;7.00;64.10;;;;;;4982481;28;20318;-84
2022/03/28 04:09:26;;;;;;;4.57;2.53;;;7.00;64.00;;;;;;4997806;28;20024;-84
2022/03/28 04:11:51;;;;;;;6.32;2.85;;;6.90;63.90;;;;;;5016645;28;20040;-84
2022/03/28 04:14:17;;;;;;;4.37;2.90;;;6.90;64.00;;;;;;4984595;28;20568;-84
2022/03/28 04:16:43;;;;;;;4.60;2.53;;;6.90;64.00;;;;;;5001853;28;20414;-84
2022/03/28 04:19:09;;;;;;;3.97;2.30;;;6.90;64.10;;;;;;4984518;28;20049;-84
2022/03/28 04:21:35;;;;;;;7.03;2.58;;;6.80;64.00;;;;;;4990983;28;20700;-83
2022/03/28 04:24:01;;;;;;;4.55;2.65;;;6.80;64.00;;;;;;4999748;28;20026;-84
2022/03/28 04:26:26;;;;;;;4.73;2.73;;;6.80;64.10;;;;;;4996512;28;20069;-84
2022/03/28 04:28:52;;;;;;;5.57;2.50;;;6.80;64.20;;;;;;5000076;28;20042;-84
2022/03/28 04:31:18;;;;;;;4.47;2.37;;;6.80;64.20;;;;;;4981343;28;20518;-83
2022/03/28 04:33:43;;;;;;;5.07;2.65;;;6.70;64.10;;;;;;5000260;28;20517;-83
2022/03/28 04:36:09;;;;;;;5.00;2.60;;;6.80;64.10;;;;;;4992581;28;20430;-84
2022/03/28 04:38:34;;;;;;;4.82;2.67;;;6.70;64.10;;;;;;4996797;28;20022;-83
2022/03/28 04:41:00;;;;;;;5.23;2.57;;;6.70;64.30;;;;;;5012393;28;20034;-83
2022/03/28 04:43:26;;;;;;;5.03;2.70;;;6.70;64.20;;;;;;4978966;28;20025;-84
2022/03/28 04:45:52;;;;;;;6.20;2.90;;;6.60;64.10;;;;;;4968125;28;20117;-83
2022/03/28 04:48:17;;;;;;;5.25;2.50;;;6.60;64.20;;;;;;4986891;28;20038;-84
2022/03/28 04:50:43;;;;;;;5.10;2.80;;;6.60;64.40;;;;;;4981322;28;20048;-84
2022/03/28 04:53:08;;;;;;;4.78;2.60;;;6.60;64.50;;;;;;4971467;28;20367;-83
2022/03/28 04:55:34;;;;;;;6.10;2.77;;;6.60;64.60;;;;;;4998573;28;20065;-84
2022/03/28 04:58:00;;;;;;;4.67;2.60;;;6.60;64.60;;;;;;5004851;28;20065;-84
2022/03/28 05:00:26;;;;;;;5.10;2.50;;;6.50;64.50;;;;;;4986177;28;20276;-84
2022/03/28 05:02:52;;;;;;;4.70;2.50;;;6.50;64.40;;;;;;4966451;28;20386;-84
2022/03/28 05:05:17;;;;;;;5.43;2.53;;;6.50;64.40;;;;;;4986662;28;20444;-84
2022/03/28 05:07:43;;;;;;;5.55;2.70;;;6.40;64.40;;;;;;4992364;28;20030;-84
2022/03/28 05:10:09;;;;;;;4.80;2.50;;;6.40;64.40;;;;;;4991873;28;20493;-84
2022/03/28 05:12:35;;;;;;;4.85;2.60;;;6.40;64.40;;;;;;4987595;28;20033;-84
2022/03/28 05:15:02;;;;;;;5.25;2.58;;;6.30;64.30;;;;;;4988858;28;20579;-84
2022/03/28 05:17:29;;;;;;;5.10;2.65;;;6.30;64.30;;;;;;4984266;28;20026;-84
2022/03/28 05:19:56;;;;;;;4.47;2.67;;;6.30;64.40;;;;;;4986612;28;20388;-84
2022/03/28 05:22:22;;;;;;;3.90;2.40;;;6.30;64.50;;;;;;4974795;28;20030;-84
2022/03/28 05:24:50;;;;;;;4.60;2.20;;;6.20;64.50;;;;;;4996210;28;20211;-84
2022/03/28 05:27:16;;;;;;;5.07;2.60;;;6.20;64.50;;;;;;5010215;28;20038;-84
2022/03/28 05:29:42;;;;;;;4.70;2.53;;;6.20;64.40;;;;;;4985644;28;20014;-84
2022/03/28 05:32:09;;;;;;;4.65;2.20;;;6.10;64.50;;;;;;4992249;28;20073;-84
2022/03/28 05:34:35;;;;;;;5.53;2.80;;;6.10;64.50;;;;;;4982307;28;20033;-85
2022/03/28 05:37:03;;;;;;;4.63;2.63;;;6.10;64.70;;;;;;5002701;28;20250;-84
2022/03/28 05:39:30;;;;;;;5.20;2.60;;;6.10;64.80;;;;;;5011815;28;20037;-83
2022/03/28 05:41:56;;;;;;;5.82;2.70;;;6.10;64.80;;;;;;4982832;28;20018;-84
2022/03/28 05:44:22;;;;;;;5.47;2.90;;;6.10;64.90;;;;;;5008346;28;20438;-83
2022/03/28 05:46:51;;;;;;;5.47;2.85;;;6.10;64.90;;;;;;4987403;28;20921;-84
2022/03/28 05:49:19;;;;;;;5.50;2.90;;;6.10;65.00;;;;;;5003018;28;20022;-84
2022/03/28 05:51:45;;;;;;;6.35;2.67;;;6.10;65.00;;;;;;4984809;28;20376;-84
2022/03/28 05:54:12;;;;;;;5.95;3.15;;;6.10;65.20;;;;;;5007795;28;20109;-84
2022/03/28 05:56:38;;;;;;;6.63;2.70;;;6.00;65.20;;;;;;5005863;28;20080;-84
2022/03/28 05:59:04;;;;;;;4.93;2.43;;;6.10;65.40;;;;;;5005197;28;20338;-84
2022/03/28 06:01:30;;;;;;;5.85;2.80;;;6.10;65.40;;;;;;4984314;28;20544;-84
2022/03/28 06:03:55;;;;;;;4.93;2.50;;;6.10;66.00;;;;;;4988009;28;20449;-83
2022/03/28 06:06:21;;;;;;;6.03;2.97;;;6.20;65.60;;;;;;4981387;28;20371;-84
2022/03/28 06:08:46;;;;;;;6.88;2.92;;;6.20;65.80;;;;;;4998052;28;20030;-84
2022/03/28 06:11:12;;;;;;;4.57;2.60;;;6.20;65.70;;;;;;4981275;28;20514;-84
2022/03/28 06:13:38;;;;;;;6.32;2.88;;;6.30;65.80;;;;;;4983593;28;20592;-84
2022/03/28 06:16:04;;;;;;;6.47;2.87;;;6.30;65.90;;;;;;5019828;28;20122;-84
2022/03/28 06:18:30;;;;;;;5.97;2.97;;;6.30;66.00;;;;;;5002533;28;20026;-83
2022/03/28 06:20:55;;;;;;;6.20;3.10;;;6.30;66.00;;;;;;4995361;28;20053;-84
2022/03/28 06:23:21;;;;;;;5.63;3.23;;;6.40;66.20;;;;;;5002525;28;20765;-84
2022/03/28 06:25:47;;;;;;;5.30;2.85;;;6.50;66.30;;;;;;4976579;28;20224;-84
2022/03/28 06:28:15;;;;;;;5.03;3.13;;;6.50;66.30;;;;;;4981130;28;20041;-84
2022/03/28 06:30:41;;;;;;;7.37;3.70;;;6.60;66.60;;;;;;4990544;28;20486;-84
2022/03/28 06:33:08;;;;;;;6.45;3.15;;;6.70;66.80;;;;;;5003863;28;20092;-84
2022/03/28 06:35:33;;;;;;;7.10;3.35;;;6.80;66.80;;;;;;4971071;28;20074;-84
2022/03/28 06:37:59;;;;;;;7.10;3.40;;;6.90;66.90;;;;;;5012763;28;20421;-84
2022/03/28 06:40:25;;;;;;;6.07;3.20;;;7.00;67.10;;;;;;5001572;28;20030;-84
2022/03/28 06:42:51;;;;;;;6.57;3.23;;;7.20;67.30;;;;;;5006173;28;20026;-84
2022/03/28 06:45:17;;;;;;;6.43;3.65;;;7.30;67.40;;;;;;5002811;28;20190;-84
2022/03/28 06:47:43;;;;;;;6.55;2.83;;;7.40;67.70;;;;;;4984193;28;20438;-84
2022/03/28 06:50:09;;;;;;;6.57;3.77;;;7.50;68.00;;;;;;4988978;28;20038;-84
2022/03/28 06:52:36;;;;;;;7.97;3.75;;;7.80;68.20;;;;;;4969680;28;20018;-84
2022/03/28 06:55:03;;;;;;;5.97;3.00;;;8.00;68.10;;;;;;4984798;28;20033;-84
2022/03/28 06:57:28;;;;;;;7.72;3.25;;;8.10;68.00;;;;;;4982840;28;20302;-84
2022/03/28 06:59:54;;;;;;;6.70;3.30;;;8.30;68.10;;;;;;4985618;28;20418;-84
2022/03/28 07:02:20;;;;;;;6.30;3.20;;;8.50;68.10;;;;;;4998564;28;20037;-84
2022/03/28 07:04:46;;;;;;;6.30;3.50;;;8.70;68.20;;;;;;5014869;28;20110;-84
2022/03/28 07:07:12;;;;;;;5.15;3.30;;;8.90;68.60;;;;;;4991593;28;20042;-84
2022/03/28 07:09:38;;;;;;;6.10;3.50;;;9.10;69.10;;;;;;5006363;28;20728;-84
2022/03/28 07:12:05;;;;;;;6.80;3.80;;;9.40;69.60;;;;;;4989231;28;20702;-84
2022/03/28 07:14:32;;;;;;;9.63;4.10;;;9.70;69.70;;;;;;4979843;28;20030;-84
2022/03/28 07:16:58;;;;;;;7.55;4.22;;;10.00;69.90;;;;;;5003207;28;20154;-84
2022/03/28 07:19:24;;;;;;;6.95;3.85;;;10.30;70.20;;;;;;4983051;28;20223;-85
2022/03/28 07:21:50;;;;;;;7.40;3.70;;;10.70;70.40;;;;;;5001330;28;20034;-85
2022/03/28 07:24:17;;;;;;;7.68;4.32;;;11.10;70.80;;;;;;4983087;28;20052;-85
2022/03/28 07:26:48;;;;;;;7.37;4.13;;;11.50;71.70;;;;;;4993925;28;20046;-85
2022/03/28 07:29:17;;;;;;;8.55;4.43;;;12.00;71.00;;;;;;4978653;28;20033;-85
2022/03/28 07:31:47;;;;;;;7.57;4.05;;;12.40;71.00;;;;;;5009991;28;20098;-85
2022/03/28 07:34:32;;;;;;;8.02;4.18;;;12.80;71.70;;;;;;5010349;28;20033;-85
2022/03/28 07:36:58;;;;;;;7.53;4.38;;;13.30;71.10;;;;;;5015940;28;20053;-85
2022/03/28 07:39:24;;;;;;;7.73;4.50;;;13.80;71.00;;;;;;4963054;28;20092;-86
2022/03/28 07:41:51;;;;;;;8.02;4.07;;;14.20;70.90;;;;;;5006392;28;20038;-85
2022/03/28 07:44:18;;;;;;;8.60;4.70;;;14.70;70.70;;;;;;4977846;28;20397;-86
2022/03/28 07:46:45;;;;;;;7.90;4.53;;;15.20;70.40;;;;;;4994754;28;20037;-86
2022/03/28 07:49:16;;;;;;;9.23;4.75;;;15.60;70.00;;;;;;4988216;28;20052;-86
2022/03/28 07:51:42;;;;;;;8.80;4.73;;;16.10;69.10;;;;;;4989538;28;20034;-86
2022/03/28 07:54:08;;;;;;;8.38;4.95;;;16.50;69.10;;;;;;4965666;28;20469;-85
2022/03/28 07:56:34;;;;;;;9.95;5.10;;;16.90;68.70;;;;;;4980599;28;20355;-85
2022/03/28 07:59:00;;;;;;;9.13;5.18;;;17.30;67.80;;;;;;4983646;28;20441;-85
2022/03/28 08:01:25;;;;;;;10.60;5.20;;;17.50;67.20;;;;;;5014186;28;20081;-85
2022/03/28 08:03:52;;;;;;;10.40;5.28;;;17.90;66.70;;;;;;4990694;28;20388;-85
2022/03/28 08:06:18;;;;;;;10.98;5.20;;;18.20;66.30;;;;;;5004554;28;20076;-86
2022/03/28 08:08:43;;;;;;;11.13;5.20;;;18.50;65.90;;;;;;5007977;28;20069;-86
2022/03/28 08:11:09;;;;;;;8.93;5.68;;;18.80;65.70;;;;;;4992687;28;20031;-86
2022/03/28 08:13:36;;;;;;;10.25;5.60;;;19.10;65.40;;;;;;4979221;28;20463;-86
2022/03/28 08:16:03;;;;;;;10.03;5.50;;;19.40;64.90;;;;;;4976721;28;20061;-86
2022/03/28 08:18:29;;;;;;;11.57;5.68;;;19.70;64.00;;;;;;4995296;28;20234;-86
2022/03/28 08:20:55;;;;;;;8.48;5.45;;;20.00;63.30;;;;;;4994638;28;20053;-86
2022/03/28 08:23:21;;;;;;;9.52;5.18;;;20.30;63.00;;;;;;4970552;28;20356;-86
2022/03/28 08:25:48;;;;;;;10.05;5.95;;;20.50;62.80;;;;;;4994497;28;20014;-86
2022/03/28 08:28:15;;;;;;;9.80;5.63;;;20.80;62.40;;;;;;4980037;28;20040;-86
2022/03/28 08:30:40;;;;;;;8.80;5.47;;;21.10;61.90;;;;;;4996032;28;20154;-86
2022/03/28 08:33:06;;;;;;;11.15;5.53;;;21.40;61.70;;;;;;5020234;28;20508;-86
2022/03/28 08:35:32;;;;;;;9.70;5.60;;;21.60;60.90;;;;;;5011581;28;20053;-86
2022/03/28 08:37:58;;;;;;;10.93;5.77;;;21.90;60.70;;;;;;5000126;28;20740;-86
2022/03/28 08:40:24;;;;;;;9.80;5.70;;;22.10;60.00;;;;;;4977345;28;20697;-86
2022/03/28 08:42:50;;;;;;;9.68;5.95;;;22.40;59.50;;;;;;4999889;28;20038;-86
2022/03/28 08:45:16;;;;;;;11.13;6.10;;;22.60;58.80;;;;;;4976043;28;20034;-86
2022/03/28 08:47:48;;;;;;;11.07;5.82;;;22.80;58.30;;;;;;4997613;28;20037;-86
2022/03/28 08:50:14;;;;;;;10.65;6.38;;;23.00;56.90;;;;;;4982310;28;20034;-86
2022/03/28 08:52:41;;;;;;;8.85;5.82;;;23.20;57.70;;;;;;4993236;28;21472;-86
2022/03/28 08:55:11;;;;;;;10.23;6.00;;;23.40;57.30;;;;;;4993885;28;20359;-86
2022/03/28 08:57:37;;;;;;;11.07;6.13;;;23.70;56.00;;;;;;4971934;28;20100;-86
2022/03/28 09:00:06;;;;;;;10.07;6.30;;;23.90;56.60;;;;;;4967408;28;20041;-86
2022/03/28 09:02:37;;;;;;;9.60;5.75;;;24.20;55.80;;;;;;4976216;28;20544;-86
2022/03/28 09:05:04;;;;;;;9.52;5.90;;;24.40;54.50;;;;;;4995220;28;20033;-86
2022/03/28 09:07:30;;;;;;;10.63;6.32;;;24.70;55.50;;;;;;4984528;28;20026;-86
2022/03/28 09:10:00;;;;;;;9.50;5.90;;;24.90;55.00;;;;;;4996319;28;20037;-87
2022/03/28 09:12:25;;;;;;;9.48;6.07;;;25.10;53.70;;;;;;4960907;28;20026;-87
2022/03/28 09:15:01;;;;;;;11.00;5.97;;;25.40;54.40;;;;;;4978164;28;20374;-86
2022/03/28 09:17:28;;;;;;;8.67;5.53;;;25.70;51.90;;;;;;4988039;28;20466;-86
2022/03/28 09:19:55;;;;;;;9.15;5.88;;;26.00;53.40;;;;;;5013723;28;20034;-86
2022/03/28 09:22:25;;;;;;;9.20;5.97;;;26.20;52.80;;;;;;5014127;28;20068;-86
2022/03/28 09:24:57;;;;;;;10.82;6.07;;;26.50;52.20;;;;;;4996921;28;20389;-86
2022/03/28 09:27:29;;;;;;;8.80;5.82;;;26.70;49.90;;;;;;4969108;28;20041;-87
2022/03/28 09:30:04;;;;;;;9.50;6.43;;;27.00;50.00;;;;;;4987514;28;20112;-86
2022/03/28 09:32:31;;;;;;;11.00;6.32;;;27.20;48.90;;;;;;4994212;28;20030;-87
2022/03/28 09:35:10;;;;;;;8.48;6.03;;;27.40;50.10;;;;;;4995183;28;20486;-86
2022/03/28 09:37:48;;;;;;;9.60;6.20;;;27.70;48.90;;;;;;5008565;28;20034;-86
2022/03/28 09:40:43;;;;;;;11.10;6.43;;;27.90;47.00;;;;;;5012533;28;20250;-86
2022/03/28 09:43:16;;;;;;;9.97;5.97;;;28.20;47.20;;;;;;4964995;28;21222;-87
2022/03/28 09:45:45;;;;;;;9.77;5.88;;;28.50;47.20;;;;;;4982962;28;20872;-87
2022/03/28 09:48:12;;;;;;;8.45;6.10;;;28.70;48.40;;;;;;4970395;28;20113;-87
2022/03/28 09:50:49;;;;;;;9.32;6.32;;;28.90;47.60;;;;;;5009003;28;20328;-87
2022/03/28 09:53:25;;;;;;;8.32;6.13;;;29.20;44.90;;;;;;4963852;28;20053;-87
2022/03/28 09:55:56;;;;;;;9.30;5.80;;;29.30;44.60;;;;;;4999790;28;20022;-86
2022/03/28 09:58:39;;;;;;;8.50;5.75;;;29.50;45.60;;;;;;4954996;28;20465;-86
2022/03/28 10:01:19;;;;;;;9.02;6.13;;;29.70;43.10;;;;;;5002427;28;20021;-85
2022/03/28 10:04:05;;;;;;;7.88;5.80;;;29.90;43.70;;;;;;4980613;28;20434;-87
2022/03/28 10:06:34;;;;;;;8.45;6.53;;;30.00;42.50;;;;;;5008348;28;20060;-86
2022/03/28 10:09:00;;;;;;;8.87;6.00;;;30.00;43.50;;;;;;4990314;28;20029;-87
2022/03/28 10:11:27;;;;;;;9.48;6.35;;;30.10;43.20;;;;;;4983209;28;20026;-87
2022/03/28 10:13:54;;;;;;;9.63;6.22;;;30.20;43.10;;;;;;4978142;28;20225;-87
2022/03/28 10:16:20;;;;;;;7.63;5.55;;;30.30;42.70;;;;;;4979003;28;20065;-86
2022/03/28 10:18:47;;;;;;;9.50;5.97;;;30.50;42.40;;;;;;4970072;28;20759;-86
2022/03/28 10:21:27;;;;;;;7.55;6.13;;;30.50;41.70;;;;;;5001316;28;20025;-87
2022/03/28 10:24:10;;;;;;;8.95;6.03;;;30.70;40.90;;;;;;5008227;28;20394;-86
2022/03/28 10:26:45;;;;;;;8.25;6.00;;;30.90;39.10;;;;;;5008629;28;20046;-87
2022/03/28 10:29:13;;;;;;;8.63;5.85;;;31.00;39.90;;;;;;4969782;28;20030;-87
2022/03/28 10:32:00;;;;;;;10.07;6.40;;;31.10;40.60;;;;;;5005626;28;20506;-86
2022/03/28 10:34:52;;;;;;;8.38;5.85;;;31.30;37.30;;;;;;4996123;28;21598;-86
2022/03/28 10:37:24;;;;;;;8.82;5.70;;;31.50;37.00;;;;;;5013587;28;20022;-86
2022/03/28 10:39:49;;;;;;;7.03;5.35;;;31.60;38.10;;;;;;5015058;28;20068;-87
2022/03/28 10:42:35;;;;;;;7.90;5.30;;;31.70;39.10;;;;;;4973825;28;20131;-85
2022/03/28 10:45:12;;;;;;;8.95;5.38;;;31.90;35.70;;;;;;4986850;28;20494;-87
2022/03/28 10:47:52;;;;;;;7.47;5.60;;;32.20;36.30;;;;;;4998446;28;20231;-85
2022/03/28 10:50:45;;;;;;;6.80;5.00;;;32.30;37.00;;;;;;4983529;28;20429;-87
2022/03/28 10:53:25;;;;;;;8.23;5.32;;;32.50;35.70;;;;;;4993721;28;20528;-87
2022/03/28 10:55:58;;;;;;;7.97;5.43;;;32.60;36.00;;;;;;5002008;28;20041;-87
2022/03/28 10:58:28;;;;;;;7.55;4.82;;;32.70;35.60;;;;;;4990891;28;20034;-87
2022/03/28 11:01:12;;;;;;;8.45;5.32;;;32.90;36.60;;;;;;4989012;28;20060;-86
2022/03/28 11:03:45;;;;;;;6.95;5.03;;;33.00;33.60;;;;;;5003543;28;20040;-87
2022/03/28 11:06:11;;;;;;;7.38;4.90;;;33.10;35.50;;;;;;4979403;28;20041;-87
2022/03/28 11:08:48;;;;;;;7.27;5.27;;;33.20;35.10;;;;;;5003142;28;20331;-87
2022/03/28 11:11:22;;;;;;;6.68;4.90;;;33.40;35.00;;;;;;5016660;28;20030;-87
2022/03/28 11:14:03;;;;;;;7.22;5.22;;;33.50;33.30;;;;;;5002727;28;20041;-86
2022/03/28 11:16:41;;;;;;;7.47;4.78;;;33.60;32.30;;;;;;4959989;28;20030;-87
2022/03/28 11:19:20;;;;;;;8.35;5.40;;;33.80;32.70;;;;;;4999303;28;20045;-87
2022/03/28 11:22:16;;;;;;;8.23;5.17;;;34.00;32.20;;;;;;4975592;28;20069;-87
2022/03/28 11:24:54;;;;;;;8.90;5.55;;;34.10;31.80;;;;;;5003486;28;20056;-87
2022/03/28 11:27:21;;;;;;;9.43;5.57;;;34.20;31.70;;;;;;5015138;28;20037;-86
2022/03/28 11:29:48;;;;;;;8.40;5.70;;;34.10;33.00;;;;;;4992187;28;20064;-86
2022/03/28 11:32:19;;;;;;;8.52;5.82;;;34.20;32.50;;;;;;4974024;28;20064;-87
2022/03/28 11:34:53;;;;;;;7.63;5.47;;;34.20;31.00;;;;;;5016915;28;20381;-85
2022/03/28 11:37:24;;;;;;;8.57;5.25;;;34.20;30.90;;;;;;4986305;28;20041;-87
2022/03/28 11:40:11;;;;;;;10.13;5.50;;;34.30;31.10;;;;;;4972542;28;20497;-86
2022/03/28 11:42:37;;;;;;;9.23;5.75;;;34.30;31.90;;;;;;4983387;28;20116;-87
2022/03/28 11:45:13;;;;;;;7.65;5.40;;;34.40;31.60;;;;;;4989659;28;20371;-86
2022/03/28 11:47:49;;;;;;;7.97;5.13;;;34.50;30.20;;;;;;4960842;28;20033;-87
2022/03/28 11:50:15;;;;;;;7.93;5.05;;;34.50;31.30;;;;;;4996540;28;20061;-87
2022/03/28 11:52:41;;;;;;;8.73;5.65;;;34.70;31.20;;;;;;4970628;28;20044;-87
2022/03/28 11:55:23;;;;;;;8.43;5.30;;;34.70;30.80;;;;;;4989469;28;20478;-87
2022/03/28 12:00:35;;;;;;;8.50;5.47;;;34.90;30.30;;;;;;5006255;28;20026;-87
2022/03/28 12:03:02;;;;;;;7.95;5.30;;;34.90;30.40;;;;;;5002972;28;20504;-87
2022/03/28 12:05:32;;;;;;;8.02;5.25;;;35.10;30.00;;;;;;4985447;28;20223;-87
2022/03/28 12:07:59;;;;;;;8.73;5.07;;;35.10;29.00;;;;;;4993295;28;20084;-87
2022/03/28 12:10:28;;;;;;;8.55;5.35;;;35.10;29.30;;;;;;4961554;28;21485;-87
2022/03/28 12:12:58;;;;;;;7.65;5.30;;;35.00;29.50;;;;;;4998784;28;20050;-86
2022/03/28 12:15:30;;;;;;;7.95;5.03;;;34.80;28.60;;;;;;4992162;28;20361;-87
2022/03/28 12:17:59;;;;;;;6.70;4.78;;;34.70;28.70;;;;;;4993217;28;20121;-87
2022/03/28 12:20:33;;;;;;;8.93;4.73;;;34.70;28.40;;;;;;4966900;28;20339;-87
2022/03/28 12:23:01;;;;;;;6.15;4.47;;;34.60;27.90;;;;;;4990924;28;20052;-87
2022/03/28 12:25:37;;;;;;;8.40;5.55;;;34.50;28.70;;;;;;4977307;28;20030;-88
2022/03/28 12:28:05;;;;;;;7.53;5.10;;;34.60;28.60;;;;;;4989715;28;20128;-87
2022/03/28 12:30:35;;;;;;;6.75;5.15;;;34.70;28.80;;;;;;5003687;28;20627;-86
2022/03/28 12:33:29;;;;;;;6.47;4.77;;;34.70;28.50;;;;;;4983148;28;20088;-84
2022/03/28 12:36:03;;;;;;;7.28;4.93;;;34.80;27.50;;;;;;4991403;28;20045;-87
2022/03/28 12:38:31;;;;;;;6.18;4.85;;;34.80;28.00;;;;;;4966048;28;20295;-88
2022/03/28 12:41:04;;;;;;;7.70;4.93;;;34.80;28.40;;;;;;4976192;28;20069;-88
2022/03/28 12:43:33;;;;;;;8.65;5.18;;;34.80;27.70;;;;;;4998131;28;20253;-86
2022/03/28 12:46:01;;;;;;;6.97;4.60;;;34.90;28.20;;;;;;4985410;28;20474;-88
2022/03/28 12:48:41;;;;;;;7.53;4.65;;;35.00;28.10;;;;;;4970878;28;20055;-88
2022/03/28 12:51:08;;;;;;;7.47;4.88;;;35.10;27.10;;;;;;5003687;28;20452;-87
2022/03/28 12:53:36;;;;;;;6.60;4.85;;;35.00;27.90;;;;;;4955905;28;20526;-87
2022/03/28 12:56:15;;;;;;;7.65;4.60;;;35.10;27.50;;;;;;5009307;28;20033;-88
2022/03/28 12:58:51;;;;;;;7.10;5.27;;;35.10;26.60;;;;;;4992486;28;20532;-87
2022/03/28 13:01:24;;;;;;;6.75;4.78;;;35.10;27.30;;;;;;4990415;28;20026;-87